Time;durP1;ratioP1;P1;durP2;ratioP2;P2;SDS_P1;SDS_P2;PMS_P1;PMS_P2;Temp;Humidity;BMP_temperature;BMP_pressure;BME280_temperature;BME280_humidity;BME280_pressure;Samples;Min_cycle;Max_cycle;Signal;HPM_P1;HPM_P2
2022/08/26 00:00:54;;;;;;;19.70;4.57;;;;;;;-143.84;69.00;45037.66;5133184;27;20546;-78
2022/08/26 00:03:23;;;;;;;23.07;3.93;;;;;;;-143.84;69.06;45073.81;5132859;27;20438;-78
2022/08/26 00:05:52;;;;;;;32.80;5.40;;;;;;;-143.84;68.80;45068.13;5133423;27;20483;-78
2022/08/26 00:08:21;;;;;;;17.53;4.07;;;;;;;-143.84;68.72;45041.44;5133082;27;20445;-78
2022/08/26 00:10:49;;;;;;;23.13;4.10;;;;;;;-143.84;68.46;45022.41;5133004;27;21255;-78
2022/08/26 00:13:17;;;;;;;20.90;4.30;;;;;;;-143.84;68.82;45058.59;5132499;27;20442;-78
2022/08/26 00:15:45;;;;;;;13.50;4.03;;;;;;;-143.84;68.81;45026.22;5132673;27;20438;-79
2022/08/26 00:18:13;;;;;;;21.53;5.20;;;;;;;-143.84;69.08;45035.75;5132860;27;20458;-78
2022/08/26 00:20:40;;;;;;;11.43;4.50;;;;;;;-143.84;69.26;45026.22;5132345;27;20438;-76
2022/08/26 00:23:09;;;;;;;23.63;4.03;;;;;;;-143.84;69.37;45035.75;5132417;27;20927;-76
2022/08/26 00:25:37;;;;;;;17.83;5.07;;;;;;;-143.84;69.80;45026.22;5132027;27;20482;-78
2022/08/26 00:28:06;;;;;;;16.03;4.37;;;;;;;-143.84;69.70;45041.44;5132797;27;20435;-78
2022/08/26 00:30:34;;;;;;;17.03;3.70;;;;;;;-143.84;69.83;45018.59;5132399;27;20485;-78
2022/08/26 00:33:03;;;;;;;37.13;5.27;;;;;;;-143.84;70.06;45043.34;5132583;27;20947;-78
2022/08/26 00:35:30;;;;;;;10.03;4.00;;;;;;;-143.84;70.26;45060.50;5132797;27;20476;-78
2022/08/26 00:37:59;;;;;;;16.57;4.13;;;;;;;-143.84;70.12;45056.69;5132788;27;20445;-78
2022/08/26 00:40:30;;;;;;;22.53;4.50;;;;;;;-143.84;70.30;45030.03;5132515;27;20437;-78
2022/08/26 00:42:58;;;;;;;18.47;4.70;;;;;;;-143.84;70.71;45031.94;5132506;27;20453;-78
2022/08/26 00:45:25;;;;;;;7.53;3.43;;;;;;;-143.84;70.83;45056.69;5132161;27;20418;-78
2022/08/26 00:47:57;;;;;;;27.47;4.63;;;;;;;-143.84;70.93;45052.88;5132012;27;20438;-78
2022/08/26 00:50:29;;;;;;;35.70;4.90;;;;;;;-143.84;70.72;45037.66;5132365;27;20474;-78
2022/08/26 00:53:00;;;;;;;18.47;4.00;;;;;;;-143.84;70.60;45066.22;5132140;27;20440;-78
2022/08/26 00:55:34;;;;;;;14.63;4.23;;;;;;;-143.84;70.66;45052.88;5131578;27;20457;-78
2022/08/26 00:58:03;;;;;;;17.20;3.90;;;;;;;-143.84;70.40;45062.41;5131863;27;20490;-78
2022/08/26 01:00:31;;;;;;;21.60;4.87;;;;;;;-143.84;70.20;45070.00;5132027;27;20529;-78
2022/08/26 01:03:01;;;;;;;15.57;3.87;;;;;;;-143.84;69.66;45043.34;5132066;27;20441;-78
2022/08/26 01:05:29;;;;;;;14.10;3.90;;;;;;;-143.84;69.47;45045.25;5132259;27;20838;-78
2022/08/26 01:07:56;;;;;;;17.60;4.30;;;;;;;-143.84;68.83;45043.34;5132169;27;20434;-78
2022/08/26 01:10:30;;;;;;;19.73;4.73;;;;;;;-143.84;68.52;45033.84;5132066;27;20473;-78
2022/08/26 01:13:00;;;;;;;18.60;4.00;;;;;;;-143.84;68.09;45050.97;5132020;27;20444;-78
2022/08/26 01:15:31;;;;;;;29.13;5.23;;;;;;;-143.84;67.84;45030.03;5132186;28;20430;-78
2022/08/26 01:17:58;;;;;;;14.77;4.90;;;;;;;-143.84;67.90;45026.22;5132795;27;20426;-78
2022/08/26 01:20:31;;;;;;;17.57;3.60;;;;;;;-143.84;67.52;45071.91;5138854;27;20426;-78
2022/08/26 01:23:02;;;;;;;19.63;4.63;;;;;;;-143.84;67.94;45033.84;5138612;27;20922;-78
2022/08/26 01:25:32;;;;;;;17.57;4.37;;;;;;;-143.84;67.67;45028.13;5136540;27;20538;-79
2022/08/26 01:28:02;;;;;;;14.23;4.83;;;;;;;-143.84;67.84;45049.06;5136458;27;20431;-78
2022/08/26 01:30:31;;;;;;;18.63;4.47;;;;;;;-143.84;67.92;45049.06;5138128;27;20458;-78
2022/08/26 01:33:01;;;;;;;22.63;4.90;;;;;;;-143.84;67.14;45049.06;5138371;27;20499;-78
2022/08/26 01:35:29;;;;;;;28.63;4.37;;;;;;;-143.84;67.10;45052.88;5138200;27;20430;-78
2022/08/26 01:37:56;;;;;;;15.60;4.30;;;;;;;-143.84;67.24;45071.91;5138722;27;20440;-78
2022/08/26 01:40:30;;;;;;;28.90;4.73;;;;;;;-143.84;67.39;45052.88;5138759;27;21344;-78
2022/08/26 01:42:59;;;;;;;19.50;3.97;;;;;;;-143.84;67.41;45081.44;5138554;27;20436;-79
2022/08/26 01:45:30;;;;;;;16.13;3.40;;;;;;;-143.84;67.39;45022.41;5138515;27;20426;-78
2022/08/26 01:48:00;;;;;;;42.43;4.13;;;;;;;-143.84;66.82;45060.50;5138432;27;20479;-79
2022/08/26 01:50:31;;;;;;;21.70;4.60;;;;;;;-143.84;66.55;45056.69;5138547;27;20497;-79
2022/08/26 01:53:01;;;;;;;17.00;5.90;;;;;;;-143.84;65.62;45050.97;5138526;27;20924;-79
2022/08/26 01:55:30;;;;;;;15.17;4.07;;;;;;;-143.84;65.13;45068.13;5138818;27;20854;-78
2022/08/26 01:57:59;;;;;;;30.30;4.27;;;;;;;-143.84;64.54;45062.41;5139345;27;20932;-75
2022/08/26 02:00:27;;;;;;;39.87;4.33;;;;;;;-143.84;64.02;45052.88;5139174;27;20437;-74
2022/08/26 02:05:38;;;;;;;32.03;3.80;;;;;;;-143.84;62.23;45077.63;5138069;27;20438;-73
2022/08/26 02:08:07;;;;;;;25.50;4.30;;;;;;;-143.84;61.32;45035.75;5139457;27;20899;-74
2022/08/26 02:10:35;;;;;;;30.10;5.50;;;;;;;-143.84;60.99;45039.53;5139011;27;20958;-75
2022/08/26 02:13:04;;;;;;;19.23;3.90;;;;;;;-143.84;60.93;45070.00;5139155;27;20692;-73
2022/08/26 02:15:33;;;;;;;21.37;4.00;;;;;;;-143.84;60.99;45043.34;5138978;27;20428;-75
2022/08/26 02:18:02;;;;;;;16.73;4.60;;;;;;;-143.84;61.08;45062.41;5138845;27;20442;-74
2022/08/26 02:20:30;;;;;;;24.47;4.10;;;;;;;-143.84;61.21;45054.78;5138724;27;20486;-75
2022/08/26 02:22:57;;;;;;;31.73;3.80;;;;;;;-143.84;60.51;45049.06;5138827;27;20438;-75
2022/08/26 02:25:29;;;;;;;22.90;4.60;;;;;;;-143.84;60.65;45094.78;5138851;27;20522;-73
2022/08/26 02:27:58;;;;;;;17.10;3.80;;;;;;;-143.84;60.21;45056.69;5139173;27;20783;-74
2022/08/26 02:30:27;;;;;;;19.10;3.83;;;;;;;-143.84;59.75;45030.03;5135878;27;20499;-74
2022/08/26 02:32:55;;;;;;;20.67;3.80;;;;;;;-143.84;60.04;45039.53;5135881;27;20426;-74
2022/08/26 02:35:24;;;;;;;12.73;3.37;;;;;;;-143.84;60.01;45031.94;5135227;27;20962;-74
2022/08/26 02:37:53;;;;;;;26.17;4.13;;;;;;;-143.84;60.49;45037.66;5135394;27;20497;-74
2022/08/26 02:40:23;;;;;;;13.27;4.30;;;;;;;-143.84;60.21;45054.78;5135464;27;20510;-74
2022/08/26 02:42:51;;;;;;;17.57;3.70;;;;;;;-143.84;60.20;45039.53;5135508;27;20487;-74
2022/08/26 02:45:20;;;;;;;9.50;3.17;;;;;;;-143.84;60.44;45047.16;5135409;27;20469;-74
2022/08/26 02:47:48;;;;;;;20.47;3.80;;;;;;;-143.84;59.90;45066.22;5117279;27;20466;-74
2022/08/26 02:50:15;;;;;;;21.27;3.80;;;;;;;-143.84;60.34;45049.06;5135580;27;20958;-74
2022/08/26 02:52:42;;;;;;;17.60;4.73;;;;;;;-143.84;60.59;45047.16;5128618;27;20454;-74
2022/08/26 02:55:10;;;;;;;20.43;4.07;;;;;;;-143.84;60.94;45060.50;5112758;28;20511;-75
2022/08/26 02:57:37;;;;;;;18.50;3.87;;;;;;;-143.84;60.52;45071.91;5111804;28;20431;-74
2022/08/26 03:00:08;;;;;;;24.00;4.17;;;;;;;-143.84;60.02;45039.53;5112618;28;20439;-74
2022/08/26 03:02:37;;;;;;;17.33;3.53;;;;;;;-143.84;59.71;45068.13;5113234;28;20462;-74
2022/08/26 03:05:05;;;;;;;23.10;5.27;;;;;;;-143.84;59.84;45054.78;5113383;28;20441;-74
2022/08/26 03:07:32;;;;;;;20.77;3.50;;;;;;;-143.84;59.81;45039.53;5112358;28;21235;-73
2022/08/26 03:09:59;;;;;;;23.23;3.70;;;;;;;-143.84;59.69;45060.50;5112934;28;20810;-74
2022/08/26 03:12:27;;;;;;;21.33;3.67;;;;;;;-143.84;60.04;45064.31;5113286;28;20500;-75
2022/08/26 03:14:55;;;;;;;17.00;3.73;;;;;;;-143.84;59.60;45049.06;5112802;28;20442;-76
2022/08/26 03:17:22;;;;;;;24.47;3.87;;;;;;;-143.84;59.13;45049.06;5112336;28;20534;-74
2022/08/26 03:19:50;;;;;;;23.07;3.63;;;;;;;-143.84;59.30;45041.44;5112923;28;20431;-74
2022/08/26 03:22:17;;;;;;;19.07;3.80;;;;;;;-143.84;59.21;45043.34;5112563;28;20948;-74
2022/08/26 03:24:45;;;;;;;23.37;3.77;;;;;;;-143.84;59.85;45030.03;5130875;27;20449;-74
2022/08/26 03:27:12;;;;;;;20.20;3.60;;;;;;;-143.84;60.02;45073.81;5133591;27;20434;-74
2022/08/26 03:32:24;;;;;;;24.53;3.27;;;;;;;-143.84;60.50;45049.06;5133262;27;20523;-74
2022/08/26 03:34:53;;;;;;;29.00;3.50;;;;;;;-143.84;61.19;45081.44;5133052;27;20446;-74
2022/08/26 03:37:20;;;;;;;15.80;3.47;;;;;;;-143.84;60.71;45047.16;5132856;27;20521;-74
2022/08/26 03:39:47;;;;;;;32.67;5.20;;;;;;;-143.84;60.43;45030.03;5133141;27;20798;-74
2022/08/26 03:42:15;;;;;;;21.50;3.27;;;;;;;-143.84;60.32;45033.84;5132632;27;20931;-74
2022/08/26 03:44:42;;;;;;;18.57;3.70;;;;;;;-143.84;58.99;45049.06;5132804;27;20410;-74
2022/08/26 03:47:09;;;;;;;27.37;3.60;;;;;;;-143.84;58.30;45077.63;5132696;27;20490;-74
2022/08/26 03:49:36;;;;;;;7.70;3.40;;;;;;;-143.84;57.33;45052.88;5132630;27;20438;-74
2022/08/26 03:52:06;;;;;;;19.77;3.70;;;;;;;-143.84;55.61;45035.75;5132607;27;20613;-74
2022/08/26 03:54:33;;;;;;;20.83;3.97;;;;;;;-143.84;54.66;45018.59;5132874;27;20479;-75
2022/08/26 03:57:00;;;;;;;19.70;3.27;;;;;;;-143.84;54.38;45062.41;5132712;27;20426;-74
2022/08/26 03:59:28;;;;;;;8.33;3.10;;;;;;;-143.84;53.78;45031.94;5132611;27;20468;-74
2022/08/26 04:01:55;;;;;;;26.67;4.27;;;;;;;-143.84;52.75;45050.97;5132490;27;20430;-74
2022/08/26 04:04:22;;;;;;;19.73;3.13;;;;;;;-143.84;51.69;45018.59;5132117;27;20502;-74
2022/08/26 04:06:49;;;;;;;10.30;2.77;;;;;;;-143.84;51.04;45035.75;5132270;27;20927;-73
2022/08/26 04:09:20;;;;;;;18.63;3.87;;;;;;;-143.84;50.30;45030.03;5132348;27;20503;-73
2022/08/26 04:11:48;;;;;;;30.47;3.73;;;;;;;-143.84;49.69;45045.25;5132498;27;20470;-74
2022/08/26 04:14:18;;;;;;;13.37;3.30;;;;;;;-143.84;49.46;45031.94;5132383;27;20522;-74
2022/08/26 04:16:45;;;;;;;17.27;3.73;;;;;;;-143.84;49.25;45030.03;5131865;27;20438;-74
2022/08/26 04:19:14;;;;;;;11.00;3.30;;;;;;;-143.84;49.16;45020.50;5131578;27;20487;-74
2022/08/26 04:21:42;;;;;;;18.53;3.83;;;;;;;-143.84;48.55;45031.94;5132562;27;20430;-74
2022/08/26 04:24:11;;;;;;;14.63;3.40;;;;;;;-143.84;48.58;45030.03;5132022;27;20446;-74
2022/08/26 04:26:40;;;;;;;9.67;3.03;;;;;;;-143.84;48.44;45031.94;5131857;27;20481;-74
2022/08/26 04:29:10;;;;;;;21.73;3.53;;;;;;;-143.84;48.53;45022.41;5113859;27;20507;-74
2022/08/26 04:31:39;;;;;;;30.33;3.60;;;;;;;-143.84;47.44;45026.22;5131777;27;20461;-74
2022/08/26 04:34:07;;;;;;;35.37;4.03;;;;;;;-143.84;47.29;45033.84;5132062;27;20518;-74
2022/08/26 04:36:35;;;;;;;24.07;3.97;;;;;;;-143.84;46.29;45007.19;5132377;27;20430;-74
2022/08/26 04:39:04;;;;;;;23.63;3.63;;;;;;;-143.84;46.70;45030.03;5131612;27;20434;-74
2022/08/26 04:41:31;;;;;;;30.50;4.10;;;;;;;-143.84;46.20;44995.75;5132057;27;20426;-74
2022/08/26 04:44:01;;;;;;;22.33;3.53;;;;;;;-143.84;45.64;44991.94;5131811;27;20434;-74
2022/08/26 04:46:28;;;;;;;16.50;2.87;;;;;;;-143.84;44.92;45020.50;5131542;27;20438;-74
2022/08/26 04:48:55;;;;;;;21.37;4.47;;;;;;;-143.84;44.75;45009.09;5131987;27;20502;-74
2022/08/26 04:51:26;;;;;;;26.30;3.90;;;;;;;-143.84;43.56;44999.56;5131458;27;20990;-74
2022/08/26 04:53:55;;;;;;;26.80;3.20;;;;;;;-143.84;42.08;44990.03;5130962;27;20452;-74
2022/08/26 04:56:23;;;;;;;26.33;4.40;;;;;;;-143.84;41.48;45037.66;5131866;27;20537;-74
2022/08/26 04:58:50;;;;;;;41.17;5.03;;;;;;;-143.84;41.87;44993.84;5131967;27;20503;-74
2022/08/26 05:01:19;;;;;;;20.67;3.40;;;;;;;-143.84;41.79;44988.13;5131783;27;20434;-74
2022/08/26 05:03:46;;;;;;;19.57;3.83;;;;;;;-143.84;40.75;45024.31;5131564;27;20445;-74
2022/08/26 05:06:14;;;;;;;25.87;3.90;;;;;;;-143.84;41.53;44993.84;5131600;27;20433;-74
2022/08/26 05:08:41;;;;;;;34.57;3.23;;;;;;;-143.84;40.64;45001.47;5131912;27;20422;-74
2022/08/26 05:11:09;;;;;;;21.20;3.97;;;;;;;-143.84;40.94;45009.09;5131273;27;20476;-74
2022/08/26 05:13:37;;;;;;;34.07;3.37;;;;;;;-143.84;40.15;44988.13;5131182;27;20519;-74
2022/08/26 05:16:06;;;;;;;32.53;3.90;;;;;;;-143.84;39.26;45003.38;5131358;27;20963;-74
2022/08/26 05:18:36;;;;;;;18.30;2.90;;;;;;;-143.84;39.00;45020.50;5131071;27;20445;-74
2022/08/26 05:21:04;;;;;;;22.60;3.80;;;;;;;-143.84;39.01;44980.53;5131132;28;20442;-74
2022/08/26 05:23:32;;;;;;;15.57;3.60;;;;;;;-143.84;38.64;45018.59;5131284;28;20430;-74
2022/08/26 05:25:59;;;;;;;27.07;4.60;;;;;;;-143.84;38.77;44988.13;5130994;28;20851;-74
2022/08/26 05:28:29;;;;;;;33.33;4.07;;;;;;;-143.84;37.67;44972.91;5130709;28;20446;-74
2022/08/26 05:30:56;;;;;;;31.07;4.63;;;;;;;-143.84;37.58;44969.09;5131022;28;20434;-74
2022/08/26 05:33:24;;;;;;;18.70;3.87;;;;;;;-143.84;37.22;44993.84;5131199;28;20463;-74
2022/08/26 05:35:53;;;;;;;12.10;3.17;;;;;;;-143.84;36.84;44984.31;5131640;28;20904;-74
2022/08/26 05:38:22;;;;;;;26.43;5.50;;;;;;;-143.84;36.69;45018.59;5131219;28;20442;-74
2022/08/26 05:40:51;;;;;;;32.20;4.13;;;;;;;-143.84;36.75;44974.81;5131195;28;20433;-74
2022/08/26 05:43:20;;;;;;;35.43;4.67;;;;;;;-143.84;36.46;44942.44;5131381;27;20449;-74
2022/08/26 05:45:49;;;;;;;31.63;3.90;;;;;;;-143.84;36.29;44953.88;5131286;28;20981;-74
2022/08/26 05:48:18;;;;;;;26.20;4.80;;;;;;;-143.84;36.34;44948.16;5130907;28;21193;-74
2022/08/26 05:50:48;;;;;;;33.20;4.13;;;;;;;-143.84;36.44;44967.19;5129370;28;20434;-74
2022/08/26 05:53:20;;;;;;;38.70;4.40;;;;;;;-143.84;35.66;44967.19;5129263;28;20434;-74
2022/08/26 05:55:50;;;;;;;17.00;4.33;;;;;;;-143.84;35.46;44972.91;5129576;28;20514;-74
2022/08/26 05:58:20;;;;;;;35.10;4.70;;;;;;;-143.84;35.49;44932.91;5130407;28;20450;-74
2022/08/26 06:00:56;;;;;;;23.93;4.90;;;;;;;-143.84;36.04;44931.00;5130541;28;20533;-74
2022/08/26 06:03:23;;;;;;;25.63;4.10;;;;;;;-143.84;36.14;44931.00;5130325;27;20463;-74
2022/08/26 06:05:50;;;;;;;22.63;4.43;;;;;;;-143.84;34.99;44934.81;5134009;27;20430;-74
2022/08/26 06:08:20;;;;;;;19.53;4.10;;;;;;;-143.84;35.78;44911.97;5135474;27;20503;-74
2022/08/26 06:10:48;;;;;;;41.60;4.50;;;;;;;-143.84;35.02;44927.19;5134896;27;20473;-74
2022/08/26 06:13:17;;;;;;;24.83;5.00;;;;;;;-143.84;35.22;44965.28;5134823;27;20481;-74
2022/08/26 06:15:46;;;;;;;20.00;4.20;;;;;;;-143.84;33.74;44911.97;5134612;27;20441;-72
2022/08/26 06:18:16;;;;;;;16.50;4.20;;;;;;;-143.84;34.41;44931.00;5135123;27;20442;-73
2022/08/26 06:20:44;;;;;;;27.97;5.27;;;;;;;-143.84;33.08;44902.44;5134770;27;20438;-72
2022/08/26 06:25:57;;;;;;;22.73;4.67;;;;;;;-143.84;33.94;44900.53;5134973;27;21108;-72
2022/08/26 06:28:26;;;;;;;21.40;5.30;;;;;;;-143.84;33.42;44908.16;5134731;27;20430;-72
2022/08/26 06:30:54;;;;;;;25.00;4.33;;;;;;;-143.84;32.66;44904.34;5135038;27;21227;-72
2022/08/26 06:33:22;;;;;;;20.83;4.37;;;;;;;-143.84;31.76;44877.69;5135253;27;20560;-72
2022/08/26 06:35:50;;;;;;;19.40;4.70;;;;;;;-143.84;31.63;44881.50;5134856;27;20426;-74
2022/08/26 06:38:18;;;;;;;27.17;4.17;;;;;;;-143.84;31.80;44879.59;5134722;27;20438;-74
2022/08/26 06:40:48;;;;;;;35.83;6.30;;;;;;;-143.84;31.75;44894.84;5134943;27;20434;-72
2022/08/26 06:43:17;;;;;;;25.40;4.53;;;;;;;-143.84;32.49;44889.13;5134559;27;20464;-72
2022/08/26 06:45:46;;;;;;;30.67;4.50;;;;;;;-143.84;31.72;44877.69;5134930;27;20487;-72
2022/08/26 06:48:14;;;;;;;24.13;4.97;;;;;;;-143.84;31.26;44900.53;5134651;27;20469;-72
2022/08/26 06:50:42;;;;;;;34.47;4.43;;;;;;;-143.84;31.42;44881.50;5134652;27;20438;-73
2022/08/26 06:53:11;;;;;;;30.77;4.97;;;;;;;-143.84;32.67;44866.28;5134211;27;20470;-74
2022/08/26 06:55:40;;;;;;;42.83;6.47;;;;;;;-143.84;32.75;44889.13;5134432;27;20442;-74
2022/08/26 06:58:08;;;;;;;28.53;4.80;;;;;;;-143.84;32.09;44866.28;5134092;27;20441;-74
2022/08/26 07:00:37;;;;;;;23.20;4.67;;;;;;;-143.84;33.11;44877.69;5134288;27;20969;-72
2022/08/26 07:03:06;;;;;;;36.13;6.10;;;;;;;-143.84;32.57;44870.09;5134652;27;20507;-72
2022/08/26 07:05:34;;;;;;;42.40;6.60;;;;;;;-143.84;32.77;44877.69;5134124;27;20495;-72
2022/08/26 07:08:02;;;;;;;28.87;5.30;;;;;;;-143.84;31.63;44862.47;5134363;27;20441;-72
2022/08/26 07:10:29;;;;;;;40.73;6.07;;;;;;;-143.84;32.76;44830.09;5134449;27;20442;-72
2022/08/26 07:12:57;;;;;;;38.43;7.47;;;;;;;-143.84;33.50;44871.97;5134165;27;20474;-72
2022/08/26 07:15:24;;;;;;;34.03;5.20;;;;;;;-143.84;32.77;44896.75;5133886;27;20491;-73
2022/08/26 07:17:53;;;;;;;24.70;5.67;;;;;;;-143.84;32.63;44892.94;5133467;27;20438;-74
2022/08/26 07:20:20;;;;;;;41.40;6.73;;;;;;;-143.84;32.94;44910.06;5134055;27;20430;-72
2022/08/26 07:22:47;;;;;;;20.63;5.20;;;;;;;-143.84;33.40;44862.47;5134158;27;20849;-72
2022/08/26 07:25:14;;;;;;;21.97;6.20;;;;;;;-143.84;33.23;44904.34;5133807;27;20462;-72
2022/08/26 07:27:42;;;;;;;50.17;5.50;;;;;;;-143.84;32.92;44915.78;5133875;27;20853;-72
2022/08/26 07:30:10;;;;;;;29.67;5.87;;;;;;;-143.84;33.86;44923.41;5133876;27;20826;-72
2022/08/26 07:32:37;;;;;;;26.23;6.53;;;;;;;-143.84;34.15;44892.94;5133753;27;20534;-72
2022/08/26 07:35:07;;;;;;;42.13;6.50;;;;;;;-143.84;34.07;44894.84;5134129;27;20422;-72
2022/08/26 07:37:34;;;;;;;21.53;5.70;;;;;;;-143.84;33.98;44904.34;5133713;27;20994;-73
2022/08/26 07:40:01;;;;;;;36.50;6.03;;;;;;;-143.84;34.44;44923.41;5133438;27;20428;-74
2022/08/26 07:42:28;;;;;;;19.40;5.20;;;;;;;-143.84;35.21;44927.19;5133474;27;20430;-74
2022/08/26 07:44:56;;;;;;;46.13;6.30;;;;;;;-143.84;34.35;44942.44;5133764;27;20434;-74
2022/08/26 07:47:23;;;;;;;25.37;5.80;;;;;;;-143.84;35.14;44904.34;5133827;27;20422;-74
2022/08/26 07:49:50;;;;;;;31.97;6.07;;;;;;;-143.84;35.09;44910.06;5133711;27;20924;-74
2022/08/26 07:52:19;;;;;;;32.63;6.43;;;;;;;-143.84;34.37;44915.78;5133067;27;20474;-74
2022/08/26 07:54:46;;;;;;;25.03;5.50;;;;;;;-143.84;34.27;44900.53;5133432;27;20449;-74
2022/08/26 07:57:13;;;;;;;50.00;7.37;;;;;;;-143.84;34.08;44925.31;5133886;27;20819;-74
2022/08/26 07:59:40;;;;;;;43.73;5.60;;;;;;;-143.84;33.90;44898.66;5133380;27;20506;-74
2022/08/26 08:02:08;;;;;;;25.90;6.00;;;;;;;-143.84;34.10;44894.84;5133364;27;20438;-72
2022/08/26 08:04:35;;;;;;;26.53;6.80;;;;;;;-143.84;34.25;44883.41;5133449;27;20415;-72
2022/08/26 08:07:03;;;;;;;15.87;5.67;;;;;;;-143.84;34.59;44919.59;5133271;27;20800;-72
2022/08/26 08:09:31;;;;;;;33.57;6.27;;;;;;;-143.84;34.73;44898.66;5133096;27;20928;-72
2022/08/26 08:11:58;;;;;;;39.07;5.93;;;;;;;-143.84;35.42;44904.34;5132853;27;21021;-72
2022/08/26 08:14:26;;;;;;;17.00;5.03;;;;;;;-143.84;35.47;44894.84;5133297;27;20775;-72
2022/08/26 08:16:53;;;;;;;35.80;4.50;;;;;;;-143.84;35.16;44900.53;5132903;27;20438;-72
2022/08/26 08:19:20;;;;;;;30.60;5.83;;;;;;;-143.84;34.17;44894.84;5132882;27;20438;-72
2022/08/26 08:21:47;;;;;;;24.70;5.03;;;;;;;-143.84;33.64;44881.50;5133191;27;20426;-74
2022/08/26 08:24:14;;;;;;;29.87;5.30;;;;;;;-143.84;35.15;44900.53;5132911;27;20785;-72
2022/08/26 08:26:44;;;;;;;35.87;4.70;;;;;;;-143.84;33.77;44906.25;5132630;27;20477;-72
2022/08/26 08:29:12;;;;;;;30.77;5.87;;;;;;;-143.84;34.25;44883.41;5132105;27;20497;-72
2022/08/26 08:31:40;;;;;;;22.67;5.50;;;;;;;-143.84;34.17;44875.78;5132686;27;20442;-72
2022/08/26 08:34:07;;;;;;;40.77;6.00;;;;;;;-143.84;34.23;44858.66;5132417;27;21156;-72
2022/08/26 08:36:34;;;;;;;32.23;5.33;;;;;;;-143.84;33.92;44858.66;5132688;27;20468;-72
2022/08/26 08:39:01;;;;;;;18.97;4.33;;;;;;;-143.84;34.31;44877.69;5132336;27;20437;-73
2022/08/26 08:41:48;;;;;;;29.70;6.37;;;;;;;-143.84;34.08;44896.75;5132516;27;20439;-74
2022/08/26 08:44:19;;;;;;;34.07;3.80;;;;;;;-143.84;33.96;44879.59;5132543;27;20800;-74
2022/08/26 08:46:50;;;;;;;18.53;4.50;;;;;;;-143.84;34.08;44896.75;5132687;27;20852;-74
2022/08/26 08:49:18;;;;;;;28.30;5.20;;;;;;;-143.84;33.94;44896.75;5132519;27;20434;-74
2022/08/26 08:51:52;;;;;;;26.27;5.30;;;;;;;-143.84;34.64;44906.25;5132144;27;20471;-74
2022/08/26 08:54:20;;;;;;;35.13;5.73;;;;;;;-143.84;34.25;44946.25;5132225;27;21011;-74
2022/08/26 08:56:52;;;;;;;25.70;4.80;;;;;;;-143.84;35.70;44873.88;5131836;27;20884;-74
2022/08/26 08:59:22;;;;;;;22.47;4.40;;;;;;;-143.84;34.61;44898.66;5132196;27;20835;-75
2022/08/26 09:02:02;;;;;;;24.10;4.87;;;;;;;-143.84;34.23;44887.22;5131938;27;20433;-74
2022/08/26 09:04:58;;;;;;;28.93;4.90;;;;;;;-143.84;34.45;44894.84;5132158;27;20434;-74
2022/08/26 09:07:33;;;;;;;29.60;4.50;;;;;;;-143.84;34.48;44881.50;5131609;27;20939;-72
2022/08/26 09:10:05;;;;;;;26.87;4.40;;;;;;;-143.84;34.26;44900.53;5132189;27;20434;-72
2022/08/26 09:12:34;;;;;;;23.90;4.77;;;;;;;-143.84;35.20;44885.31;5132048;27;20535;-77
2022/08/26 09:15:05;;;;;;;31.80;5.20;;;;;;;-143.84;34.57;44910.06;5132199;27;20484;-77
2022/08/26 09:17:48;;;;;;;21.23;4.70;;;;;;;-143.84;34.68;44892.94;5131795;27;20490;-76
2022/08/26 09:20:24;;;;;;;35.90;5.40;;;;;;;-143.84;34.53;44892.94;5132132;28;20421;-78
2022/08/26 09:22:51;;;;;;;18.37;4.73;;;;;;;-143.84;34.59;44891.03;5131858;28;20442;-77
2022/08/26 09:25:19;;;;;;;15.80;4.90;;;;;;;-143.84;34.68;44902.44;5131517;27;20568;-76
2022/08/26 09:27:49;;;;;;;21.33;5.30;;;;;;;-143.84;35.15;44900.53;5131723;28;20426;-76
2022/08/26 09:30:28;;;;;;;29.63;6.50;;;;;;;-143.84;35.08;44898.66;5131707;28;20435;-77
2022/08/26 09:33:02;;;;;;;35.27;6.40;;;;;;;-143.84;35.01;44900.53;5131635;28;20491;-77
2022/08/26 09:35:31;;;;;;;31.20;6.70;;;;;;;-143.84;34.92;44904.34;5131557;28;21001;-77
2022/08/26 09:37:59;;;;;;;42.03;5.37;;;;;;;-143.84;36.00;44894.84;5132267;28;20426;-77
2022/08/26 09:40:30;;;;;;;49.40;5.70;;;;;;;-143.84;35.90;44911.97;5134301;27;20422;-77
2022/08/26 09:43:14;;;;;;;43.00;6.90;;;;;;;-143.84;36.58;44906.25;5136153;27;20425;-77
2022/08/26 09:45:44;;;;;;;21.47;4.83;;;;;;;-143.84;36.37;44917.69;5136563;27;20434;-77
2022/08/26 09:48:24;;;;;;;20.60;6.23;;;;;;;-143.84;36.68;44911.97;5135658;27;20904;-76
2022/08/26 09:50:55;;;;;;;25.10;6.37;;;;;;;-143.84;37.09;44917.69;5135693;27;20447;-76
2022/08/26 11:11:01;;;;;;;29.83;5.53;;;;;;;-143.84;40.72;44921.50;5113146;27;20469;-73
2022/08/26 11:14:00;;;;;;;28.13;5.70;;;;;;;-143.84;41.31;44929.09;5134166;27;20474;-73
2022/08/26 11:16:38;;;;;;;48.97;6.60;;;;;;;-143.84;41.47;44906.25;5030291;28;20609;-73
2022/08/26 11:19:06;;;;;;;34.03;4.53;;;;;;;-143.84;41.08;44940.53;5118584;27;20974;-73
2022/08/26 11:21:48;;;;;;;34.30;5.67;;;;;;;-143.84;40.87;44929.09;5133450;27;20438;-73
2022/08/26 11:24:40;;;;;;;26.60;4.90;;;;;;;-143.84;41.17;44942.44;5133714;27;20847;-73
2022/08/26 11:27:11;;;;;;;31.00;6.03;;;;;;;-143.84;41.22;44934.81;5133858;27;20826;-73
2022/08/26 11:29:59;;;;;;;25.63;5.53;;;;;;;-143.84;40.68;44955.75;5133490;27;20430;-73
2022/08/26 11:32:46;;;;;;;28.27;5.80;;;;;;;-143.84;40.88;44950.06;5133574;27;20443;-73
2022/08/26 11:35:49;;;;;;;21.33;5.47;;;;;;;-143.84;40.53;44946.25;5133255;27;20464;-73
2022/08/26 11:38:25;;;;;;;35.17;5.63;;;;;;;-143.84;40.59;44950.06;5133183;27;20944;-73
2022/08/26 11:41:11;;;;;;;34.63;6.10;;;;;;;-143.84;40.67;44913.88;5133333;27;20999;-73
2022/08/26 11:43:41;;;;;;;37.07;6.07;;;;;;;-143.84;40.91;44934.81;5129168;27;21022;-73
2022/08/26 11:46:10;;;;;;;39.63;5.43;;;;;;;-143.84;41.28;44942.44;5133103;27;20631;-73
2022/08/26 11:48:39;;;;;;;30.07;6.67;;;;;;;-143.84;41.37;44951.97;5133100;27;20454;-73
2022/08/26 11:51:09;;;;;;;22.70;5.47;;;;;;;-143.84;39.86;44946.25;5133270;27;20449;-73
2022/08/26 11:53:39;;;;;;;18.27;5.77;;;;;;;-143.84;41.22;44953.88;5132793;27;20472;-73
2022/08/26 11:56:10;;;;;;;22.50;6.50;;;;;;;-143.84;41.42;44925.31;5132913;27;20849;-73
2022/08/26 11:58:43;;;;;;;37.83;5.30;;;;;;;-143.84;40.68;44921.50;5132682;27;20426;-73
2022/08/26 12:01:13;;;;;;;35.33;5.87;;;;;;;-143.84;41.74;44932.91;5132817;27;20434;-72
2022/08/26 12:03:46;;;;;;;40.57;5.27;;;;;;;-143.84;42.49;44940.53;5132331;27;20442;-73
2022/08/26 12:06:22;;;;;;;25.87;4.93;;;;;;;-143.84;43.84;44942.44;5133014;27;20429;-73
2022/08/26 12:08:50;;;;;;;24.07;5.90;;;;;;;-143.84;44.47;44929.09;5132452;27;20442;-73
2022/08/26 12:11:23;;;;;;;38.57;6.00;;;;;;;-143.84;42.95;44929.09;5132431;27;20477;-73
2022/08/26 12:13:59;;;;;;;27.73;6.73;;;;;;;-143.84;42.45;44921.50;5132586;27;20462;-73
2022/08/26 12:16:28;;;;;;;29.13;4.90;;;;;;;-143.84;42.10;44925.31;5132821;27;20446;-73
2022/08/26 12:18:55;;;;;;;27.50;5.00;;;;;;;-143.84;42.85;44948.16;5132423;27;20445;-73
2022/08/26 12:21:27;;;;;;;38.87;5.40;;;;;;;-143.84;42.40;44938.63;5132271;27;20434;-73
2022/08/26 12:23:56;;;;;;;23.70;5.13;;;;;;;-143.84;40.98;44938.63;5132192;27;20488;-73
2022/08/26 12:26:27;;;;;;;15.03;4.70;;;;;;;-143.84;40.85;44946.25;5132550;27;20438;-73
2022/08/26 12:28:57;;;;;;;33.33;5.20;;;;;;;-143.84;40.51;44942.44;5132452;27;20434;-73
2022/08/26 12:31:28;;;;;;;30.93;5.43;;;;;;;-143.84;40.42;44925.31;5132447;27;20439;-73
2022/08/26 12:33:57;;;;;;;22.03;4.97;;;;;;;-143.84;39.95;44936.72;5132049;27;20979;-73
2022/08/26 12:36:30;;;;;;;36.90;5.47;;;;;;;-143.84;40.83;44948.16;5131825;27;20495;-73
2022/08/26 12:38:58;;;;;;;32.27;6.17;;;;;;;-143.84;42.19;44923.41;5132086;27;20438;-73
2022/08/26 12:41:47;;;;;;;19.23;5.13;;;;;;;-143.84;41.61;44934.81;5132242;27;20487;-77
2022/08/26 12:44:47;;;;;;;27.80;5.63;;;;;;;-143.84;39.57;44951.97;5132401;27;20992;-77
2022/08/26 12:47:22;;;;;;;17.87;4.83;;;;;;;-143.84;39.72;44932.91;5132341;27;20438;-77